sensor_id;sensor_type;location;lat;lon;timestamp;temperature;humidity
33673;DHT22;20011;51.510;9.942;2023-04-23T00:01:13;14.90;99.90
33673;DHT22;20011;51.510;9.942;2023-04-23T00:03:40;14.90;99.90
33673;DHT22;20011;51.510;9.942;2023-04-23T00:06:09;14.90;99.90
33673;DHT22;20011;51.510;9.942;2023-04-23T00:08:40;14.90;99.90
33673;DHT22;20011;51.510;9.942;2023-04-23T00:11:08;14.80;99.90
33673;DHT22;20011;51.510;9.942;2023-04-23T00:13:36;14.80;99.90
33673;DHT22;20011;51.510;9.942;2023-04-23T00:16:03;14.80;99.90
33673;DHT22;20011;51.510;9.942;2023-04-23T00:18:30;14.80;99.90
33673;DHT22;20011;51.510;9.942;2023-04-23T00:20:57;14.80;99.90
33673;DHT22;20011;51.510;9.942;2023-04-23T00:23:24;14.80;99.90
33673;DHT22;20011;51.510;9.942;2023-04-23T00:25:51;14.80;99.90
33673;DHT22;20011;51.510;9.942;2023-04-23T00:28:18;14.80;99.90
33673;DHT22;20011;51.510;9.942;2023-04-23T00:30:47;14.80;99.90
33673;DHT22;20011;51.510;9.942;2023-04-23T00:33:14;14.80;99.90
33673;DHT22;20011;51.510;9.942;2023-04-23T00:35:41;14.80;99.90
33673;DHT22;20011;51.510;9.942;2023-04-23T00:38:08;14.80;99.90
33673;DHT22;20011;51.510;9.942;2023-04-23T00:40:35;14.80;99.90
33673;DHT22;20011;51.510;9.942;2023-04-23T00:43:03;14.80;99.90
33673;DHT22;20011;51.510;9.942;2023-04-23T00:45:30;14.80;99.90
33673;DHT22;20011;51.510;9.942;2023-04-23T00:47:57;14.80;99.90
33673;DHT22;20011;51.510;9.942;2023-04-23T00:50:25;14.80;99.90
33673;DHT22;20011;51.510;9.942;2023-04-23T00:52:51;14.80;99.90
33673;DHT22;20011;51.510;9.942;2023-04-23T00:55:18;14.80;99.90
33673;DHT22;20011;51.510;9.942;2023-04-23T00:57:47;14.70;99.90
33673;DHT22;20011;51.510;9.942;2023-04-23T01:00:14;14.70;99.90
33673;DHT22;20011;51.510;9.942;2023-04-23T01:02:42;14.70;99.90
33673;DHT22;20011;51.510;9.942;2023-04-23T01:05:10;14.70;99.90
33673;DHT22;20011;51.510;9.942;2023-04-23T01:07:39;14.70;99.90
33673;DHT22;20011;51.510;9.942;2023-04-23T01:10:08;14.70;99.90
33673;DHT22;20011;51.510;9.942;2023-04-23T01:12:35;14.70;99.90
33673;DHT22;20011;51.510;9.942;2023-04-23T01:15:03;14.70;99.90
33673;DHT22;20011;51.510;9.942;2023-04-23T01:17:31;14.70;99.90
33673;DHT22;20011;51.510;9.942;2023-04-23T01:20:00;14.60;99.90
33673;DHT22;20011;51.510;9.942;2023-04-23T01:22:26;14.60;99.90
33673;DHT22;20011;51.510;9.942;2023-04-23T01:24:54;14.60;99.90
33673;DHT22;20011;51.510;9.942;2023-04-23T01:27:21;14.60;99.90
33673;DHT22;20011;51.510;9.942;2023-04-23T01:29:51;14.60;99.90
33673;DHT22;20011;51.510;9.942;2023-04-23T01:32:18;14.60;99.90
33673;DHT22;20011;51.510;9.942;2023-04-23T01:34:46;14.50;99.90
33673;DHT22;20011;51.510;9.942;2023-04-23T01:37:15;14.50;99.90
33673;DHT22;20011;51.510;9.942;2023-04-23T01:39:42;14.50;99.90
33673;DHT22;20011;51.510;9.942;2023-04-23T01:42:09;14.50;99.90
33673;DHT22;20011;51.510;9.942;2023-04-23T01:44:36;14.50;99.90
33673;DHT22;20011;51.510;9.942;2023-04-23T01:47:03;14.40;99.90
33673;DHT22;20011;51.510;9.942;2023-04-23T01:49:33;14.40;99.90
33673;DHT22;20011;51.510;9.942;2023-04-23T01:52:00;14.40;99.90
33673;DHT22;20011;51.510;9.942;2023-04-23T01:54:27;14.40;99.90
33673;DHT22;20011;51.510;9.942;2023-04-23T01:56:54;14.40;99.90
33673;DHT22;20011;51.510;9.942;2023-04-23T01:59:21;14.40;99.90
33673;DHT22;20011;51.510;9.942;2023-04-23T02:01:48;14.30;99.90
33673;DHT22;20011;51.510;9.942;2023-04-23T02:04:16;14.40;99.90
33673;DHT22;20011;51.510;9.942;2023-04-23T02:06:46;14.30;99.90
33673;DHT22;20011;51.510;9.942;2023-04-23T02:09:50;14.30;99.90
33673;DHT22;20011;51.510;9.942;2023-04-23T02:12:17;14.30;99.90
33673;DHT22;20011;51.510;9.942;2023-04-23T02:14:44;14.20;99.90
33673;DHT22;20011;51.510;9.942;2023-04-23T02:17:10;14.50;99.90
33673;DHT22;20011;51.510;9.942;2023-04-23T02:19:38;14.20;99.90
33673;DHT22;20011;51.510;9.942;2023-04-23T02:22:04;14.20;99.90
33673;DHT22;20011;51.510;9.942;2023-04-23T02:24:33;14.20;99.90
33673;DHT22;20011;51.510;9.942;2023-04-23T02:26:59;14.20;99.90
33673;DHT22;20011;51.510;9.942;2023-04-23T02:29:27;14.20;99.90
33673;DHT22;20011;51.510;9.942;2023-04-23T02:31:54;14.80;99.90
33673;DHT22;20011;51.510;9.942;2023-04-23T02:34:21;14.20;99.90
33673;DHT22;20011;51.510;9.942;2023-04-23T02:36:48;14.20;99.90
33673;DHT22;20011;51.510;9.942;2023-04-23T02:39:14;14.20;99.90
33673;DHT22;20011;51.510;9.942;2023-04-23T02:41:41;14.20;99.90
33673;DHT22;20011;51.510;9.942;2023-04-23T02:44:08;14.10;99.90
33673;DHT22;20011;51.510;9.942;2023-04-23T02:46:35;13.40;99.90
33673;DHT22;20011;51.510;9.942;2023-04-23T02:49:03;14.10;99.90
33673;DHT22;20011;51.510;9.942;2023-04-23T02:51:32;15.50;99.90
33673;DHT22;20011;51.510;9.942;2023-04-23T02:53:59;15.30;99.90
33673;DHT22;20011;51.510;9.942;2023-04-23T02:56:26;14.10;99.90
33673;DHT22;20011;51.510;9.942;2023-04-23T02:58:53;14.20;99.90
33673;DHT22;20011;51.510;9.942;2023-04-23T03:01:20;14.10;99.90
33673;DHT22;20011;51.510;9.942;2023-04-23T03:03:47;14.10;99.90
33673;DHT22;20011;51.510;9.942;2023-04-23T03:06:14;14.10;99.90
33673;DHT22;20011;51.510;9.942;2023-04-23T03:08:41;14.10;99.90
33673;DHT22;20011;51.510;9.942;2023-04-23T03:11:08;14.10;99.90
33673;DHT22;20011;51.510;9.942;2023-04-23T03:13:35;14.00;99.90
33673;DHT22;20011;51.510;9.942;2023-04-23T03:16:02;14.00;99.90
33673;DHT22;20011;51.510;9.942;2023-04-23T03:18:29;14.10;99.90
33673;DHT22;20011;51.510;9.942;2023-04-23T03:20:56;13.90;99.90
33673;DHT22;20011;51.510;9.942;2023-04-23T03:23:23;13.80;99.90
33673;DHT22;20011;51.510;9.942;2023-04-23T03:25:50;13.70;99.90
33673;DHT22;20011;51.510;9.942;2023-04-23T03:28:17;13.60;99.90
33673;DHT22;20011;51.510;9.942;2023-04-23T03:30:44;13.50;99.90
33673;DHT22;20011;51.510;9.942;2023-04-23T03:33:11;13.40;99.90
33673;DHT22;20011;51.510;9.942;2023-04-23T03:35:38;13.40;99.90
33673;DHT22;20011;51.510;9.942;2023-04-23T03:38:10;13.40;99.90
33673;DHT22;20011;51.510;9.942;2023-04-23T03:40:37;13.30;99.90
33673;DHT22;20011;51.510;9.942;2023-04-23T03:43:07;13.20;99.90
33673;DHT22;20011;51.510;9.942;2023-04-23T03:46:02;13.20;99.90
33673;DHT22;20011;51.510;9.942;2023-04-23T03:48:34;13.20;99.90
33673;DHT22;20011;51.510;9.942;2023-04-23T03:51:05;13.10;99.90
33673;DHT22;20011;51.510;9.942;2023-04-23T03:53:44;13.10;99.90
33673;DHT22;20011;51.510;9.942;2023-04-23T03:56:30;13.10;99.90
33673;DHT22;20011;51.510;9.942;2023-04-23T03:59:10;13.10;99.90
33673;DHT22;20011;51.510;9.942;2023-04-23T04:01:37;13.10;99.90
33673;DHT22;20011;51.510;9.942;2023-04-23T04:04:04;13.00;99.90
33673;DHT22;20011;51.510;9.942;2023-04-23T04:06:32;13.10;99.90
33673;DHT22;20011;51.510;9.942;2023-04-23T04:08:59;13.00;99.90
33673;DHT22;20011;51.510;9.942;2023-04-23T04:11:26;13.00;99.90
33673;DHT22;20011;51.510;9.942;2023-04-23T04:13:53;13.00;99.90
33673;DHT22;20011;51.510;9.942;2023-04-23T04:16:20;13.00;99.90
33673;DHT22;20011;51.510;9.942;2023-04-23T04:18:47;13.00;99.90
33673;DHT22;20011;51.510;9.942;2023-04-23T04:21:14;13.00;99.90
33673;DHT22;20011;51.510;9.942;2023-04-23T04:23:44;13.00;99.90
33673;DHT22;20011;51.510;9.942;2023-04-23T04:26:11;12.90;99.90
33673;DHT22;20011;51.510;9.942;2023-04-23T04:28:38;12.90;99.90
33673;DHT22;20011;51.510;9.942;2023-04-23T04:31:05;13.00;99.90
33673;DHT22;20011;51.510;9.942;2023-04-23T04:33:34;12.90;99.90
33673;DHT22;20011;51.510;9.942;2023-04-23T04:36:01;12.90;99.90
33673;DHT22;20011;51.510;9.942;2023-04-23T04:38:29;12.90;99.90
33673;DHT22;20011;51.510;9.942;2023-04-23T04:40:56;12.90;99.90
33673;DHT22;20011;51.510;9.942;2023-04-23T04:43:27;12.90;99.90
33673;DHT22;20011;51.510;9.942;2023-04-23T04:45:54;12.90;99.90
33673;DHT22;20011;51.510;9.942;2023-04-23T04:48:21;12.90;99.90
33673;DHT22;20011;51.510;9.942;2023-04-23T04:50:48;12.90;99.90
33673;DHT22;20011;51.510;9.942;2023-04-23T04:53:15;12.90;99.90
33673;DHT22;20011;51.510;9.942;2023-04-23T04:55:42;12.90;99.90
33673;DHT22;20011;51.510;9.942;2023-04-23T04:58:09;12.70;99.90
33673;DHT22;20011;51.510;9.942;2023-04-23T05:00:36;13.00;99.90
33673;DHT22;20011;51.510;9.942;2023-04-23T05:03:03;13.00;99.90
33673;DHT22;20011;51.510;9.942;2023-04-23T05:05:31;13.00;99.90
33673;DHT22;20011;51.510;9.942;2023-04-23T05:08:02;13.00;99.90
33673;DHT22;20011;51.510;9.942;2023-04-23T05:10:29;13.00;99.90
33673;DHT22;20011;51.510;9.942;2023-04-23T05:12:56;13.00;99.90
33673;DHT22;20011;51.510;9.942;2023-04-23T05:15:23;13.00;99.90
33673;DHT22;20011;51.510;9.942;2023-04-23T05:17:50;13.00;99.90
33673;DHT22;20011;51.510;9.942;2023-04-23T05:20:20;13.00;99.90
33673;DHT22;20011;51.510;9.942;2023-04-23T05:22:47;13.00;99.90
33673;DHT22;20011;51.510;9.942;2023-04-23T05:25:14;13.00;99.90
33673;DHT22;20011;51.510;9.942;2023-04-23T05:27:41;13.00;99.90
33673;DHT22;20011;51.510;9.942;2023-04-23T05:30:09;13.10;99.90
33673;DHT22;20011;51.510;9.942;2023-04-23T05:32:37;13.10;99.90
33673;DHT22;20011;51.510;9.942;2023-04-23T05:35:04;13.10;99.90
33673;DHT22;20011;51.510;9.942;2023-04-23T05:37:32;13.10;99.90
33673;DHT22;20011;51.510;9.942;2023-04-23T05:39:59;13.10;99.90
33673;DHT22;20011;51.510;9.942;2023-04-23T05:42:26;13.10;99.90
33673;DHT22;20011;51.510;9.942;2023-04-23T05:44:53;13.10;99.90
33673;DHT22;20011;51.510;9.942;2023-04-23T05:52:15;13.10;99.90
33673;DHT22;20011;51.510;9.942;2023-04-23T05:54:42;13.10;99.90
33673;DHT22;20011;51.510;9.942;2023-04-23T05:57:10;13.10;99.90
33673;DHT22;20011;51.510;9.942;2023-04-23T05:59:37;13.10;99.90
33673;DHT22;20011;51.510;9.942;2023-04-23T06:02:04;13.10;99.90
33673;DHT22;20011;51.510;9.942;2023-04-23T06:04:31;13.10;99.90
33673;DHT22;20011;51.510;9.942;2023-04-23T06:06:58;13.10;99.90
33673;DHT22;20011;51.510;9.942;2023-04-23T06:09:25;13.10;99.90
33673;DHT22;20011;51.510;9.942;2023-04-23T06:11:52;13.10;99.90
33673;DHT22;20011;51.510;9.942;2023-04-23T06:14:20;13.10;99.90
33673;DHT22;20011;51.510;9.942;2023-04-23T06:16:47;13.10;99.90
33673;DHT22;20011;51.510;9.942;2023-04-23T06:19:14;13.10;99.90
33673;DHT22;20011;51.510;9.942;2023-04-23T06:21:41;13.20;99.90
33673;DHT22;20011;51.510;9.942;2023-04-23T06:24:08;13.20;99.90
33673;DHT22;20011;51.510;9.942;2023-04-23T06:26:35;13.20;99.90
33673;DHT22;20011;51.510;9.942;2023-04-23T06:29:10;13.20;99.90
33673;DHT22;20011;51.510;9.942;2023-04-23T06:31:46;13.20;99.90
33673;DHT22;20011;51.510;9.942;2023-04-23T06:34:13;13.20;99.90
33673;DHT22;20011;51.510;9.942;2023-04-23T06:36:40;13.20;99.90
33673;DHT22;20011;51.510;9.942;2023-04-23T06:39:09;13.30;99.90
33673;DHT22;20011;51.510;9.942;2023-04-23T06:41:36;13.30;99.90
33673;DHT22;20011;51.510;9.942;2023-04-23T06:44:14;13.40;99.90
33673;DHT22;20011;51.510;9.942;2023-04-23T06:46:50;13.40;99.90
33673;DHT22;20011;51.510;9.942;2023-04-23T06:49:17;13.50;99.90
33673;DHT22;20011;51.510;9.942;2023-04-23T06:51:44;13.50;99.90
33673;DHT22;20011;51.510;9.942;2023-04-23T06:54:11;13.50;99.90
33673;DHT22;20011;51.510;9.942;2023-04-23T06:56:38;13.60;99.90
33673;DHT22;20011;51.510;9.942;2023-04-23T06:59:05;13.60;99.90
33673;DHT22;20011;51.510;9.942;2023-04-23T07:01:34;13.70;99.90
33673;DHT22;20011;51.510;9.942;2023-04-23T07:04:01;13.70;99.90
33673;DHT22;20011;51.510;9.942;2023-04-23T07:06:28;13.70;99.90
33673;DHT22;20011;51.510;9.942;2023-04-23T07:08:55;13.70;99.90
33673;DHT22;20011;51.510;9.942;2023-04-23T07:11:22;13.70;99.90
33673;DHT22;20011;51.510;9.942;2023-04-23T07:13:49;13.70;99.90
33673;DHT22;20011;51.510;9.942;2023-04-23T07:16:16;13.70;99.90
33673;DHT22;20011;51.510;9.942;2023-04-23T07:18:46;13.70;99.90
33673;DHT22;20011;51.510;9.942;2023-04-23T07:21:13;13.70;99.90
33673;DHT22;20011;51.510;9.942;2023-04-23T07:23:40;13.70;99.90
33673;DHT22;20011;51.510;9.942;2023-04-23T07:26:07;13.70;99.90
33673;DHT22;20011;51.510;9.942;2023-04-23T07:28:34;13.60;99.90
33673;DHT22;20011;51.510;9.942;2023-04-23T07:31:01;13.70;99.90
33673;DHT22;20011;51.510;9.942;2023-04-23T07:33:28;13.70;99.90
33673;DHT22;20011;51.510;9.942;2023-04-23T07:35:55;13.70;99.90
33673;DHT22;20011;51.510;9.942;2023-04-23T07:38:22;13.70;99.90
33673;DHT22;20011;51.510;9.942;2023-04-23T07:40:49;13.70;99.90
33673;DHT22;20011;51.510;9.942;2023-04-23T07:43:16;13.70;99.90
33673;DHT22;20011;51.510;9.942;2023-04-23T07:45:42;13.70;99.90
33673;DHT22;20011;51.510;9.942;2023-04-23T07:48:09;13.70;99.90
33673;DHT22;20011;51.510;9.942;2023-04-23T07:50:36;13.70;99.90
33673;DHT22;20011;51.510;9.942;2023-04-23T07:53:03;13.70;99.90
33673;DHT22;20011;51.510;9.942;2023-04-23T07:55:30;13.70;99.90
33673;DHT22;20011;51.510;9.942;2023-04-23T07:57:57;13.70;99.90
33673;DHT22;20011;51.510;9.942;2023-04-23T08:00:24;13.70;99.90
33673;DHT22;20011;51.510;9.942;2023-04-23T08:02:52;13.80;99.90
33673;DHT22;20011;51.510;9.942;2023-04-23T08:05:20;13.80;99.90
33673;DHT22;20011;51.510;9.942;2023-04-23T08:07:47;13.80;99.90
33673;DHT22;20011;51.510;9.942;2023-04-23T08:10:14;13.80;99.90
33673;DHT22;20011;51.510;9.942;2023-04-23T08:12:41;13.80;99.90
33673;DHT22;20011;51.510;9.942;2023-04-23T08:15:09;13.80;99.90
33673;DHT22;20011;51.510;9.942;2023-04-23T08:17:40;13.80;99.90
33673;DHT22;20011;51.510;9.942;2023-04-23T08:20:07;13.90;99.90
33673;DHT22;20011;51.510;9.942;2023-04-23T08:22:34;13.90;99.90
33673;DHT22;20011;51.510;9.942;2023-04-23T08:25:01;13.90;99.90
33673;DHT22;20011;51.510;9.942;2023-04-23T08:27:28;13.90;99.90
33673;DHT22;20011;51.510;9.942;2023-04-23T08:29:56;13.90;99.90
33673;DHT22;20011;51.510;9.942;2023-04-23T08:32:23;13.90;99.90
33673;DHT22;20011;51.510;9.942;2023-04-23T08:34:50;13.90;99.90
33673;DHT22;20011;51.510;9.942;2023-04-23T08:37:17;14.00;99.90
33673;DHT22;20011;51.510;9.942;2023-04-23T08:39:56;14.00;99.90
33673;DHT22;20011;51.510;9.942;2023-04-23T08:42:33;14.00;99.90
33673;DHT22;20011;51.510;9.942;2023-04-23T08:45:03;14.10;99.90
33673;DHT22;20011;51.510;9.942;2023-04-23T08:47:31;14.10;99.90
33673;DHT22;20011;51.510;9.942;2023-04-23T08:49:58;14.10;99.90
33673;DHT22;20011;51.510;9.942;2023-04-23T08:52:30;14.10;99.90
33673;DHT22;20011;51.510;9.942;2023-04-23T08:55:04;14.10;99.90
33673;DHT22;20011;51.510;9.942;2023-04-23T08:57:33;14.20;99.90
33673;DHT22;20011;51.510;9.942;2023-04-23T09:00:03;14.20;99.90
33673;DHT22;20011;51.510;9.942;2023-04-23T09:02:33;14.20;99.90
33673;DHT22;20011;51.510;9.942;2023-04-23T09:05:02;14.30;99.90
33673;DHT22;20011;51.510;9.942;2023-04-23T09:07:30;14.20;99.90
33673;DHT22;20011;51.510;9.942;2023-04-23T09:09:57;14.30;99.90
33673;DHT22;20011;51.510;9.942;2023-04-23T09:12:24;14.30;99.90
33673;DHT22;20011;51.510;9.942;2023-04-23T09:14:51;14.30;99.90
33673;DHT22;20011;51.510;9.942;2023-04-23T09:17:18;14.40;99.90
33673;DHT22;20011;51.510;9.942;2023-04-23T09:19:46;14.40;99.90
33673;DHT22;20011;51.510;9.942;2023-04-23T09:22:14;14.40;99.90
33673;DHT22;20011;51.510;9.942;2023-04-23T09:24:41;14.50;99.90
33673;DHT22;20011;51.510;9.942;2023-04-23T09:27:11;14.50;99.90
33673;DHT22;20011;51.510;9.942;2023-04-23T09:29:38;14.50;99.90
33673;DHT22;20011;51.510;9.942;2023-04-23T09:32:07;14.50;99.90
33673;DHT22;20011;51.510;9.942;2023-04-23T09:34:35;14.50;99.90
33673;DHT22;20011;51.510;9.942;2023-04-23T09:37:06;14.50;99.90
33673;DHT22;20011;51.510;9.942;2023-04-23T09:39:38;14.50;99.90
33673;DHT22;20011;51.510;9.942;2023-04-23T09:42:05;14.50;99.90
33673;DHT22;20011;51.510;9.942;2023-04-23T09:44:35;14.50;99.90
33673;DHT22;20011;51.510;9.942;2023-04-23T09:47:06;14.50;99.90
33673;DHT22;20011;51.510;9.942;2023-04-23T09:49:47;14.50;99.90
33673;DHT22;20011;51.510;9.942;2023-04-23T09:52:15;14.60;99.90
33673;DHT22;20011;51.510;9.942;2023-04-23T09:54:42;14.60;99.90
33673;DHT22;20011;51.510;9.942;2023-04-23T09:57:10;14.60;99.90
33673;DHT22;20011;51.510;9.942;2023-04-23T09:59:37;14.70;99.90
33673;DHT22;20011;51.510;9.942;2023-04-23T10:02:16;14.70;99.90
33673;DHT22;20011;51.510;9.942;2023-04-23T10:04:43;14.70;99.90
33673;DHT22;20011;51.510;9.942;2023-04-23T10:07:10;14.80;99.90
33673;DHT22;20011;51.510;9.942;2023-04-23T10:09:43;14.90;99.90
33673;DHT22;20011;51.510;9.942;2023-04-23T10:12:10;14.90;99.90
33673;DHT22;20011;51.510;9.942;2023-04-23T10:14:55;14.90;99.90
33673;DHT22;20011;51.510;9.942;2023-04-23T10:17:25;15.00;99.90
33673;DHT22;20011;51.510;9.942;2023-04-23T10:19:54;15.00;99.90
33673;DHT22;20011;51.510;9.942;2023-04-23T10:22:22;15.10;99.90
33673;DHT22;20011;51.510;9.942;2023-04-23T10:24:52;15.10;99.90
33673;DHT22;20011;51.510;9.942;2023-04-23T10:27:22;15.10;99.90
33673;DHT22;20011;51.510;9.942;2023-04-23T10:30:12;15.10;99.90
33673;DHT22;20011;51.510;9.942;2023-04-23T10:32:40;15.10;99.90
33673;DHT22;20011;51.510;9.942;2023-04-23T10:35:08;15.10;99.90
33673;DHT22;20011;51.510;9.942;2023-04-23T10:37:36;15.10;99.90
33673;DHT22;20011;51.510;9.942;2023-04-23T10:40:09;15.10;99.90
33673;DHT22;20011;51.510;9.942;2023-04-23T10:42:41;15.00;99.90
33673;DHT22;20011;51.510;9.942;2023-04-23T10:45:15;15.00;99.90
33673;DHT22;20011;51.510;9.942;2023-04-23T10:47:46;15.10;99.90
33673;DHT22;20011;51.510;9.942;2023-04-23T10:50:22;15.10;99.90
33673;DHT22;20011;51.510;9.942;2023-04-23T10:52:50;15.10;99.90
33673;DHT22;20011;51.510;9.942;2023-04-23T10:55:21;15.10;99.90
33673;DHT22;20011;51.510;9.942;2023-04-23T10:58:15;15.10;99.90
33673;DHT22;20011;51.510;9.942;2023-04-23T11:03:38;15.30;99.90
33673;DHT22;20011;51.510;9.942;2023-04-23T11:11:59;15.40;99.90
33673;DHT22;20011;51.510;9.942;2023-04-23T11:14:59;15.40;99.90
33673;DHT22;20011;51.510;9.942;2023-04-23T11:20:10;15.40;99.90
33673;DHT22;20011;51.510;9.942;2023-04-23T11:22:44;15.40;99.90
33673;DHT22;20011;51.510;9.942;2023-04-23T11:25:19;15.50;99.90
33673;DHT22;20011;51.510;9.942;2023-04-23T11:27:47;15.50;99.90
33673;DHT22;20011;51.510;9.942;2023-04-23T11:30:19;15.50;99.90
33673;DHT22;20011;51.510;9.942;2023-04-23T11:32:49;15.50;99.90
33673;DHT22;20011;51.510;9.942;2023-04-23T11:35:18;15.50;99.90
33673;DHT22;20011;51.510;9.942;2023-04-23T11:37:46;15.50;99.90
33673;DHT22;20011;51.510;9.942;2023-04-23T11:40:17;15.60;99.90
33673;DHT22;20011;51.510;9.942;2023-04-23T11:45:17;15.50;99.90
33673;DHT22;20011;51.510;9.942;2023-04-23T11:47:45;15.60;99.90
33673;DHT22;20011;51.510;9.942;2023-04-23T11:50:17;15.60;99.90
33673;DHT22;20011;51.510;9.942;2023-04-23T11:52:44;15.60;99.90
33673;DHT22;20011;51.510;9.942;2023-04-23T11:55:12;15.50;99.90
33673;DHT22;20011;51.510;9.942;2023-04-23T11:57:43;15.50;99.90
33673;DHT22;20011;51.510;9.942;2023-04-23T12:05:30;15.60;99.90
33673;DHT22;20011;51.510;9.942;2023-04-23T12:08:16;15.60;99.90
33673;DHT22;20011;51.510;9.942;2023-04-23T12:10:45;15.60;99.90
33673;DHT22;20011;51.510;9.942;2023-04-23T12:13:16;15.50;99.90
33673;DHT22;20011;51.510;9.942;2023-04-23T12:15:48;15.60;99.90
33673;DHT22;20011;51.510;9.942;2023-04-23T12:18:16;15.60;99.90
33673;DHT22;20011;51.510;9.942;2023-04-23T12:20:44;15.60;99.90
33673;DHT22;20011;51.510;9.942;2023-04-23T12:23:11;15.60;99.90
33673;DHT22;20011;51.510;9.942;2023-04-23T12:25:39;15.70;99.90
33673;DHT22;20011;51.510;9.942;2023-04-23T12:28:07;15.60;99.90
33673;DHT22;20011;51.510;9.942;2023-04-23T12:30:42;15.60;99.90
33673;DHT22;20011;51.510;9.942;2023-04-23T12:33:10;15.60;99.90
33673;DHT22;20011;51.510;9.942;2023-04-23T12:35:50;15.70;99.90
33673;DHT22;20011;51.510;9.942;2023-04-23T12:40:52;15.90;99.90
33673;DHT22;20011;51.510;9.942;2023-04-23T12:43:20;15.90;99.90
33673;DHT22;20011;51.510;9.942;2023-04-23T12:45:47;15.90;99.90
33673;DHT22;20011;51.510;9.942;2023-04-23T12:48:14;15.90;99.90
33673;DHT22;20011;51.510;9.942;2023-04-23T12:50:41;15.90;99.90
33673;DHT22;20011;51.510;9.942;2023-04-23T12:53:08;15.90;99.90
33673;DHT22;20011;51.510;9.942;2023-04-23T12:55:35;16.00;99.90
33673;DHT22;20011;51.510;9.942;2023-04-23T12:58:05;15.90;99.90
33673;DHT22;20011;51.510;9.942;2023-04-23T13:00:32;15.90;99.90
33673;DHT22;20011;51.510;9.942;2023-04-23T13:03:01;15.90;99.90
33673;DHT22;20011;51.510;9.942;2023-04-23T13:05:28;16.00;99.90
33673;DHT22;20011;51.510;9.942;2023-04-23T13:07:55;16.00;99.90
33673;DHT22;20011;51.510;9.942;2023-04-23T13:10:22;16.00;99.90
33673;DHT22;20011;51.510;9.942;2023-04-23T13:12:49;15.90;99.90
33673;DHT22;20011;51.510;9.942;2023-04-23T13:15:16;15.90;99.90
33673;DHT22;20011;51.510;9.942;2023-04-23T13:17:45;15.90;99.90
33673;DHT22;20011;51.510;9.942;2023-04-23T13:20:12;15.80;99.90
33673;DHT22;20011;51.510;9.942;2023-04-23T13:22:39;15.80;99.90
33673;DHT22;20011;51.510;9.942;2023-04-23T13:25:07;15.80;99.90
33673;DHT22;20011;51.510;9.942;2023-04-23T13:27:34;15.80;99.90
33673;DHT22;20011;51.510;9.942;2023-04-23T13:30:01;15.70;99.90
33673;DHT22;20011;51.510;9.942;2023-04-23T13:32:28;15.70;99.90
33673;DHT22;20011;51.510;9.942;2023-04-23T13:34:58;15.60;99.90
33673;DHT22;20011;51.510;9.942;2023-04-23T13:37:30;15.60;99.90
33673;DHT22;20011;51.510;9.942;2023-04-23T13:39:58;15.60;99.90
33673;DHT22;20011;51.510;9.942;2023-04-23T13:42:25;15.60;99.90
33673;DHT22;20011;51.510;9.942;2023-04-23T13:44:51;15.60;99.90
33673;DHT22;20011;51.510;9.942;2023-04-23T13:47:18;15.60;99.90
33673;DHT22;20011;51.510;9.942;2023-04-23T13:49:46;15.60;99.90
33673;DHT22;20011;51.510;9.942;2023-04-23T13:52:13;15.70;99.90
33673;DHT22;20011;51.510;9.942;2023-04-23T13:54:40;15.70;99.90
33673;DHT22;20011;51.510;9.942;2023-04-23T13:57:08;15.70;99.90
33673;DHT22;20011;51.510;9.942;2023-04-23T13:59:34;15.70;99.90
33673;DHT22;20011;51.510;9.942;2023-04-23T14:02:02;15.70;99.90
33673;DHT22;20011;51.510;9.942;2023-04-23T14:04:29;15.70;99.90
33673;DHT22;20011;51.510;9.942;2023-04-23T14:06:56;15.70;99.90
33673;DHT22;20011;51.510;9.942;2023-04-23T14:09:23;15.70;99.90
33673;DHT22;20011;51.510;9.942;2023-04-23T14:11:50;15.70;99.90
33673;DHT22;20011;51.510;9.942;2023-04-23T14:14:17;15.70;99.90
33673;DHT22;20011;51.510;9.942;2023-04-23T14:16:45;15.70;99.90
33673;DHT22;20011;51.510;9.942;2023-04-23T14:19:12;15.80;99.90
33673;DHT22;20011;51.510;9.942;2023-04-23T14:21:39;15.80;99.90
33673;DHT22;20011;51.510;9.942;2023-04-23T14:24:08;15.80;99.90
33673;DHT22;20011;51.510;9.942;2023-04-23T14:26:43;15.80;99.90
33673;DHT22;20011;51.510;9.942;2023-04-23T14:31:49;15.80;99.90
33673;DHT22;20011;51.510;9.942;2023-04-23T14:36:44;15.80;99.90
33673;DHT22;20011;51.510;9.942;2023-04-23T14:39:15;15.80;99.90
33673;DHT22;20011;51.510;9.942;2023-04-23T14:41:43;15.80;99.90
33673;DHT22;20011;51.510;9.942;2023-04-23T14:44:10;15.80;99.90
33673;DHT22;20011;51.510;9.942;2023-04-23T14:46:37;15.90;99.90
33673;DHT22;20011;51.510;9.942;2023-04-23T14:49:04;15.80;99.90
33673;DHT22;20011;51.510;9.942;2023-04-23T14:51:31;15.90;99.90
33673;DHT22;20011;51.510;9.942;2023-04-23T14:53:57;15.80;99.90
33673;DHT22;20011;51.510;9.942;2023-04-23T14:56:24;15.80;99.90
33673;DHT22;20011;51.510;9.942;2023-04-23T14:58:53;15.80;99.90
33673;DHT22;20011;51.510;9.942;2023-04-23T15:01:19;15.80;99.90
33673;DHT22;20011;51.510;9.942;2023-04-23T15:03:47;15.80;99.90
33673;DHT22;20011;51.510;9.942;2023-04-23T15:06:14;15.80;99.90
33673;DHT22;20011;51.510;9.942;2023-04-23T15:08:41;15.80;99.90
33673;DHT22;20011;51.510;9.942;2023-04-23T15:11:08;15.70;99.90
33673;DHT22;20011;51.510;9.942;2023-04-23T15:14:01;15.70;99.90
33673;DHT22;20011;51.510;9.942;2023-04-23T15:16:33;15.70;99.90
33673;DHT22;20011;51.510;9.942;2023-04-23T15:19:15;15.70;99.90
33673;DHT22;20011;51.510;9.942;2023-04-23T15:21:45;15.70;99.90
33673;DHT22;20011;51.510;9.942;2023-04-23T15:24:13;15.70;99.90
33673;DHT22;20011;51.510;9.942;2023-04-23T15:26:40;15.70;99.90
33673;DHT22;20011;51.510;9.942;2023-04-23T15:29:07;15.60;99.90
33673;DHT22;20011;51.510;9.942;2023-04-23T15:31:36;15.70;99.90
33673;DHT22;20011;51.510;9.942;2023-04-23T15:34:03;15.60;99.90
33673;DHT22;20011;51.510;9.942;2023-04-23T15:36:33;15.60;99.90
33673;DHT22;20011;51.510;9.942;2023-04-23T15:39:01;15.60;99.90
33673;DHT22;20011;51.510;9.942;2023-04-23T15:41:28;15.60;99.90
33673;DHT22;20011;51.510;9.942;2023-04-23T15:43:55;15.60;99.90
33673;DHT22;20011;51.510;9.942;2023-04-23T15:46:22;15.60;99.90
33673;DHT22;20011;51.510;9.942;2023-04-23T15:48:49;15.50;99.90
33673;DHT22;20011;51.510;9.942;2023-04-23T15:51:16;15.50;99.90
33673;DHT22;20011;51.510;9.942;2023-04-23T15:53:43;15.50;99.90
33673;DHT22;20011;51.510;9.942;2023-04-23T15:56:10;15.50;99.90
33673;DHT22;20011;51.510;9.942;2023-04-23T15:58:37;15.60;99.90
33673;DHT22;20011;51.510;9.942;2023-04-23T16:01:04;15.60;99.90
33673;DHT22;20011;51.510;9.942;2023-04-23T16:03:33;15.60;99.90
33673;DHT22;20011;51.510;9.942;2023-04-23T16:06:00;15.60;99.90
33673;DHT22;20011;51.510;9.942;2023-04-23T16:08:27;15.60;99.90
33673;DHT22;20011;51.510;9.942;2023-04-23T16:10:54;15.60;99.90